Time;durP1;ratioP1;P1;durP2;ratioP2;P2;SDS_P1;SDS_P2;PMS_P1;PMS_P2;Temp;Humidity;BMP_temperature;BMP_pressure;BME280_temperature;BME280_humidity;BME280_pressure;Samples;Min_cycle;Max_cycle;Signal;HPM_P1;HPM_P2
2021/04/22 00:00:07;;;;;;;0.88;0.43;;;;;;;21.79;nan;99943.47;5054600;28;20075;-60
2021/04/22 00:02:32;;;;;;;2.17;0.40;;;;;;;21.80;nan;99939.66;5054335;28;20025;-59
2021/04/22 00:04:58;;;;;;;2.13;0.63;;;;;;;21.85;nan;99941.78;5054359;28;20506;-59
2021/04/22 00:07:23;;;;;;;1.83;0.63;;;;;;;21.86;nan;99943.47;5054058;28;20068;-59
2021/04/22 00:09:49;;;;;;;1.75;0.47;;;;;;;21.88;nan;99941.34;5053889;28;20021;-60
2021/04/22 00:12:15;;;;;;;2.05;0.40;;;;;;;21.83;nan;99939.22;5054130;28;20029;-60
2021/04/22 00:14:40;;;;;;;1.73;0.60;;;;;;;21.88;nan;99944.91;5054265;28;20029;-59
2021/04/22 00:17:10;;;;;;;1.67;0.50;;;;;;;21.89;nan;99949.34;5054047;28;20032;-59
2021/04/22 00:19:37;;;;;;;2.28;0.68;;;;;;;21.92;nan;99946.16;5054417;28;20107;-59
2021/04/22 00:22:03;;;;;;;2.47;0.60;;;;;;;21.95;nan;99935.81;5054422;28;20456;-60
2021/04/22 00:24:28;;;;;;;2.67;0.57;;;;;;;21.91;nan;99935.44;5053714;28;20124;-60
2021/04/22 00:26:53;;;;;;;2.08;0.55;;;;;;;21.96;nan;99942.97;5053907;28;20108;-59
2021/04/22 00:29:19;;;;;;;2.92;0.65;;;;;;;21.95;nan;99938.56;5053748;28;20024;-59
2021/04/22 00:31:44;;;;;;;2.30;0.95;;;;;;;21.97;nan;99942.75;5053927;28;20028;-59
2021/04/22 00:34:09;;;;;;;2.63;0.70;;;;;;;21.98;nan;99947.16;5054122;28;20025;-59
2021/04/22 00:36:35;;;;;;;2.72;0.68;;;;;;;21.97;nan;99944.66;5053736;28;20021;-59
2021/04/22 00:39:00;;;;;;;2.42;0.52;;;;;;;21.97;nan;99940.03;5053786;28;20025;-60
2021/04/22 00:41:25;;;;;;;2.63;0.57;;;;;;;21.99;nan;99948.84;5053569;28;20404;-60
2021/04/22 00:43:53;;;;;;;2.55;0.63;;;;;;;22.00;nan;99949.69;5053762;28;20074;-59
2021/04/22 00:46:18;;;;;;;3.22;0.90;;;;;;;21.99;nan;99959.81;5053708;28;20033;-60
2021/04/22 00:48:44;;;;;;;1.70;0.52;;;;;;;21.98;nan;99979.19;5053462;28;20048;-59
2021/04/22 00:51:09;;;;;;;1.17;0.35;;;;;;;22.00;nan;99982.53;5053342;28;20473;-59
2021/04/22 00:53:34;;;;;;;2.03;0.65;;;;;;;21.99;nan;99969.91;5053478;28;20029;-60
2021/04/22 00:56:00;;;;;;;3.65;0.85;;;;;;;22.00;nan;99960.63;5053297;28;20393;-59
2021/04/22 00:58:26;;;;;;;3.80;1.20;;;;;;;22.00;nan;99966.13;5053180;28;20029;-60
2021/04/22 01:00:55;;;;;;;2.75;0.77;;;;;;;21.99;nan;99964.44;5053587;28;20520;-59
2021/04/22 01:03:20;;;;;;;2.97;0.70;;;;;;;21.99;nan;99972.66;5053133;28;20037;-59
2021/04/22 01:05:49;;;;;;;2.78;0.80;;;;;;;22.01;nan;99976.03;5053290;28;20063;-60
2021/04/22 01:08:14;;;;;;;2.17;0.52;;;;;;;22.01;nan;99967.81;5052976;28;20064;-59
2021/04/22 01:10:40;;;;;;;3.42;1.13;;;;;;;21.98;nan;99963.59;5053268;28;20087;-59
2021/04/22 01:13:06;;;;;;;3.00;0.50;;;;;;;22.00;nan;99960.63;5052955;28;20020;-59
2021/04/22 01:15:33;;;;;;;1.25;0.55;;;;;;;22.02;nan;99961.28;5053020;28;20028;-59
2021/04/22 01:17:59;;;;;;;2.35;0.60;;;;;;;21.99;nan;99958.97;5053126;28;20013;-59
2021/04/22 01:20:27;;;;;;;2.15;0.82;;;;;;;22.00;nan;99963.38;5052035;28;20060;-60
2021/04/22 01:22:53;;;;;;;1.95;0.70;;;;;;;21.99;nan;99964.44;5052934;28;20024;-60
2021/04/22 01:25:27;;;;;;;1.38;0.50;;;;;;;22.00;nan;99963.38;5052762;28;20032;-59
2021/04/22 01:27:53;;;;;;;1.83;0.80;;;;;;;22.00;nan;99961.47;5052788;28;20017;-59
2021/04/22 01:30:23;;;;;;;2.80;0.90;;;;;;;22.02;nan;99964.03;5052580;28;20384;-59
2021/04/22 01:32:49;;;;;;;2.67;0.70;;;;;;;21.99;nan;99965.28;5053126;28;20025;-60
2021/04/22 01:35:18;;;;;;;3.67;0.63;;;;;;;22.01;nan;99948.66;5052528;28;20021;-59
2021/04/22 01:37:44;;;;;;;1.70;0.50;;;;;;;22.02;nan;99964.03;5053069;28;20017;-59
2021/04/22 01:40:11;;;;;;;3.38;0.52;;;;;;;21.99;nan;99964.44;5052573;28;20033;-59
2021/04/22 01:42:37;;;;;;;3.47;1.38;;;;;;;22.00;nan;99966.13;5052959;28;20020;-59
2021/04/22 01:45:04;;;;;;;1.35;0.52;;;;;;;22.00;nan;99960.63;5052478;28;20380;-59
2021/04/22 01:47:29;;;;;;;2.35;0.80;;;;;;;21.97;nan;99955.59;5052332;28;20036;-59
2021/04/22 01:49:54;;;;;;;2.80;0.47;;;;;;;22.00;nan;99966.94;5052638;28;20025;-60
2021/04/22 01:52:20;;;;;;;1.98;0.50;;;;;;;22.00;nan;99969.69;5052273;28;20345;-59
2021/04/22 01:54:45;;;;;;;2.85;0.57;;;;;;;22.00;nan;99961.47;5052509;28;20031;-60
2021/04/22 01:57:10;;;;;;;2.03;0.47;;;;;;;21.99;nan;99970.75;5052073;28;20186;-60
2021/04/22 01:59:36;;;;;;;1.30;0.45;;;;;;;21.98;nan;99973.69;5052356;28;20380;-59
2021/04/22 02:02:01;;;;;;;1.80;0.52;;;;;;;21.98;nan;99977.28;5052403;28;20082;-60
2021/04/22 02:04:26;;;;;;;3.83;0.73;;;;;;;21.98;nan;99980.00;5052193;28;20380;-59
2021/04/22 02:06:52;;;;;;;2.92;0.57;;;;;;;21.98;nan;99969.06;5052193;28;20219;-60
2021/04/22 02:09:17;;;;;;;1.23;0.47;;;;;;;22.00;nan;99974.31;5052157;28;20062;-59
2021/04/22 02:11:43;;;;;;;1.45;0.50;;;;;;;21.99;nan;99975.38;5052279;28;20025;-60
2021/04/22 02:14:08;;;;;;;2.50;0.60;;;;;;;21.96;nan;99984.88;5052191;28;20025;-60
2021/04/22 02:16:34;;;;;;;2.33;0.60;;;;;;;21.96;nan;99979.41;5052183;28;20536;-59
2021/04/22 02:18:59;;;;;;;2.45;0.60;;;;;;;21.97;nan;99978.34;5052159;28;20449;-60
2021/04/22 02:21:24;;;;;;;2.72;0.60;;;;;;;21.97;nan;99988.44;5052004;28;20029;-59
2021/04/22 02:23:50;;;;;;;1.33;0.60;;;;;;;21.97;nan;99978.34;5052190;28;20027;-60
2021/04/22 02:26:15;;;;;;;4.22;0.80;;;;;;;21.99;nan;99986.31;5051922;28;20090;-60
2021/04/22 02:28:40;;;;;;;3.65;0.82;;;;;;;21.99;nan;99986.31;5052078;28;20035;-60
2021/04/22 02:31:05;;;;;;;3.33;1.05;;;;;;;22.00;nan;99979.78;5052219;28;20024;-60
2021/04/22 02:33:31;;;;;;;1.85;0.68;;;;;;;21.98;nan;99984.66;5056033;28;20469;-60
2021/04/22 02:35:56;;;;;;;1.67;0.70;;;;;;;21.95;nan;99976.88;5056192;28;20025;-60
2021/04/22 02:38:21;;;;;;;3.08;0.68;;;;;;;22.00;nan;99991.56;5055858;28;20395;-59
2021/04/22 02:40:47;;;;;;;2.72;1.05;;;;;;;21.97;nan;99982.97;5056025;28;20025;-60
2021/04/22 02:43:17;;;;;;;1.83;0.47;;;;;;;21.99;nan;99992.63;5055789;28;20029;-60
2021/04/22 02:45:45;;;;;;;1.50;0.57;;;;;;;21.99;nan;99987.16;5055911;28;20029;-60
2021/04/22 02:48:11;;;;;;;2.35;0.57;;;;;;;21.99;nan;99987.16;5055725;28;20021;-59
2021/04/22 02:50:39;;;;;;;2.38;0.60;;;;;;;22.00;nan;99988.00;5055834;28;20024;-59
2021/04/22 02:53:06;;;;;;;2.42;1.05;;;;;;;22.00;nan;99988.00;5055632;28;20380;-60
2021/04/22 02:55:32;;;;;;;1.85;0.63;;;;;;;21.95;nan;99985.09;5055492;28;20064;-59
2021/04/22 02:57:57;;;;;;;1.33;0.50;;;;;;;21.97;nan;99988.44;5056014;28;20021;-60
2021/04/22 03:00:23;;;;;;;3.20;0.70;;;;;;;22.00;nan;99998.94;5055481;28;20033;-60
2021/04/22 03:02:49;;;;;;;1.70;0.45;;;;;;;22.00;nan;100001.69;5055479;28;20032;-59
2021/04/22 03:05:15;;;;;;;2.10;0.45;;;;;;;21.99;nan;100002.75;5055413;28;20032;-60
2021/04/22 03:07:41;;;;;;;4.28;0.60;;;;;;;21.98;nan;99995.59;5055750;28;20033;-59
2021/04/22 03:10:09;;;;;;;2.38;0.75;;;;;;;21.97;nan;100004.84;5055724;28;20027;-59
2021/04/22 03:12:35;;;;;;;3.65;0.82;;;;;;;21.92;nan;99991.84;5055378;28;20511;-59
2021/04/22 03:15:01;;;;;;;2.53;0.70;;;;;;;21.96;nan;99992.25;5055384;28;20021;-60
2021/04/22 03:17:26;;;;;;;3.42;0.73;;;;;;;21.96;nan;100003.19;5055256;28;20571;-60
2021/04/22 03:19:51;;;;;;;1.48;0.50;;;;;;;21.97;nan;99988.44;5055362;28;20056;-60
2021/04/22 03:22:16;;;;;;;2.08;0.40;;;;;;;21.97;nan;99999.38;5055183;28;20040;-60
2021/04/22 03:24:42;;;;;;;1.05;0.43;;;;;;;21.97;nan;100002.13;5055235;28;20427;-60
2021/04/22 03:27:07;;;;;;;2.40;0.82;;;;;;;21.99;nan;100002.75;5054983;28;20029;-60
2021/04/22 03:29:33;;;;;;;2.90;0.80;;;;;;;21.98;nan;100006.53;5055000;28;20025;-60
2021/04/22 03:31:58;;;;;;;2.05;0.70;;;;;;;21.97;nan;100011.16;5055109;28;20068;-60
2021/04/22 03:34:24;;;;;;;2.20;0.70;;;;;;;21.96;nan;100008.66;5054836;28;20041;-60
2021/04/22 03:36:49;;;;;;;1.48;0.38;;;;;;;21.96;nan;100005.91;5054705;28;20060;-59
2021/04/22 03:39:14;;;;;;;2.50;0.90;;;;;;;21.96;nan;100014.97;5054780;28;20461;-60
2021/04/22 03:41:40;;;;;;;1.35;0.55;;;;;;;21.96;nan;100008.66;5054966;28;20465;-59
2021/04/22 03:44:06;;;;;;;1.13;0.45;;;;;;;21.97;nan;100010.34;5053683;28;20025;-60
2021/04/22 03:46:31;;;;;;;1.65;0.32;;;;;;;21.98;nan;100006.53;5054599;28;20119;-60
2021/04/22 03:48:57;;;;;;;2.92;0.50;;;;;;;21.97;nan;100015.81;5054789;28;20056;-59
2021/04/22 03:51:22;;;;;;;2.78;0.40;;;;;;;21.98;nan;100022.97;5054496;28;20048;-59
2021/04/22 03:53:47;;;;;;;5.68;0.75;;;;;;;21.97;nan;100021.28;5054750;28;20032;-59
2021/04/22 03:56:13;;;;;;;1.17;0.60;;;;;;;21.96;nan;100019.59;5054048;28;20132;-59
2021/04/22 03:58:38;;;;;;;2.40;0.82;;;;;;;21.95;nan;100017.91;5054457;28;20036;-59
2021/04/22 04:01:04;;;;;;;2.08;0.40;;;;;;;21.95;nan;100017.91;5054389;28;20025;-59
2021/04/22 04:03:30;;;;;;;3.53;0.65;;;;;;;23.36;nan;100022.25;5054350;28;20104;-59
2021/04/22 04:05:55;;;;;;;2.03;0.63;;;;;;;23.76;nan;100021.06;5054505;28;20029;-59
2021/04/22 04:08:20;;;;;;;0.65;0.30;;;;;;;23.38;nan;100031.09;5052788;28;20028;-59
2021/04/22 04:10:46;;;;;;;0.40;0.20;;;;;;;23.07;nan;100033.88;5054495;28;20493;-59
2021/04/22 04:13:11;;;;;;;0.73;0.32;;;;;;;23.08;nan;100017.22;5054071;28;20033;-59
2021/04/22 04:15:36;;;;;;;0.60;0.10;;;;;;;23.18;nan;100021.34;5054551;28;20052;-59
2021/04/22 04:18:03;;;;;;;0.65;0.20;;;;;;;23.16;nan;100023.47;5054209;28;20044;-59
2021/04/22 04:20:28;;;;;;;1.02;0.40;;;;;;;23.24;nan;100025.94;5054121;28;20071;-59
2021/04/22 04:22:54;;;;;;;0.95;0.20;;;;;;;23.27;nan;100011.78;5054113;28;20021;-59
2021/04/22 04:25:19;;;;;;;0.30;0.10;;;;;;;23.38;nan;100022.03;5053865;28;20443;-59
2021/04/22 04:27:44;;;;;;;1.20;0.40;;;;;;;23.39;nan;100032.78;5053977;28;20017;-59
2021/04/22 04:30:11;;;;;;;0.80;0.40;;;;;;;23.36;nan;100033.25;5053982;28;20140;-60
2021/04/22 04:32:39;;;;;;;0.45;0.40;;;;;;;23.41;nan;100038.88;5053943;28;20027;-59
2021/04/22 04:35:05;;;;;;;0.45;0.15;;;;;;;23.39;nan;100042.91;5053792;28;20025;-59
2021/04/22 04:37:30;;;;;;;1.38;0.35;;;;;;;23.46;nan;100049.16;5053900;28;20381;-60
2021/04/22 04:39:55;;;;;;;0.75;0.43;;;;;;;23.46;nan;100046.44;5053875;28;20028;-59
2021/04/22 04:42:20;;;;;;;0.30;0.20;;;;;;;23.55;nan;100053.31;5053466;28;20025;-59
2021/04/22 04:44:46;;;;;;;1.35;0.10;;;;;;;23.57;nan;100051.22;5053808;28;20036;-60
2021/04/22 04:47:11;;;;;;;1.20;0.32;;;;;;;23.58;nan;100058.41;5053132;28;20036;-59
2021/04/22 04:49:36;;;;;;;0.40;0.15;;;;;;;23.59;nan;100060.06;5053899;28;20027;-60
2021/04/22 04:52:02;;;;;;;0.70;0.30;;;;;;;23.58;nan;100069.38;5053566;28;20035;-59
2021/04/22 04:54:27;;;;;;;0.75;0.15;;;;;;;23.50;nan;100069.59;5053261;28;20071;-59
2021/04/22 04:56:53;;;;;;;0.95;0.20;;;;;;;23.52;nan;100064.75;5052083;28;20037;-60
2021/04/22 04:59:18;;;;;;;1.05;0.20;;;;;;;23.60;nan;100072.72;5053202;28;20052;-60
2021/04/22 05:01:43;;;;;;;0.77;0.10;;;;;;;23.68;nan;100077.94;5053356;28;20025;-60
2021/04/22 05:04:09;;;;;;;0.68;0.22;;;;;;;23.68;nan;100079.81;5053245;28;20134;-59
2021/04/22 05:06:34;;;;;;;0.98;0.25;;;;;;;23.62;nan;100070.59;5053156;28;20020;-60
2021/04/22 05:08:59;;;;;;;0.98;0.40;;;;;;;23.65;nan;100075.63;5053208;28;20096;-60
2021/04/22 05:11:25;;;;;;;0.15;0.10;;;;;;;23.61;nan;100074.41;5053017;28;20384;-59
2021/04/22 05:13:50;;;;;;;0.60;0.20;;;;;;;23.62;nan;100081.56;5053252;28;20021;-60
2021/04/22 05:16:17;;;;;;;0.20;0.10;;;;;;;23.65;nan;100089.34;5052956;28;20090;-59
2021/04/22 05:18:42;;;;;;;1.60;0.20;;;;;;;23.64;nan;100079.44;5053077;28;20032;-60
2021/04/22 05:21:07;;;;;;;0.50;0.20;;;;;;;23.73;nan;100079.16;5052846;28;20024;-59
2021/04/22 05:23:33;;;;;;;0.50;0.20;;;;;;;23.59;nan;100076.53;5052942;28;20432;-59
2021/04/22 05:25:58;;;;;;;0.22;0.10;;;;;;;23.66;nan;100082.78;5053024;28;20024;-60
2021/04/22 05:28:23;;;;;;;0.63;0.10;;;;;;;23.67;nan;100087.22;5052572;28;20033;-60
2021/04/22 05:30:50;;;;;;;0.45;0.30;;;;;;;23.60;nan;100083.69;5052925;28;20051;-60
2021/04/22 05:33:16;;;;;;;0.55;0.20;;;;;;;23.65;nan;100083.00;5052943;28;20024;-60
2021/04/22 05:35:41;;;;;;;0.85;0.20;;;;;;;23.63;nan;100086.00;5052762;28;20021;-60
2021/04/22 05:38:07;;;;;;;0.57;0.20;;;;;;;23.67;nan;100089.97;5052706;28;20436;-59
2021/04/22 05:40:33;;;;;;;0.95;0.20;;;;;;;23.72;nan;100086.56;5052938;28;20071;-60
2021/04/22 05:42:59;;;;;;;0.52;0.20;;;;;;;23.67;nan;100095.44;5052617;28;20075;-59
2021/04/22 05:45:25;;;;;;;0.63;0.32;;;;;;;23.74;nan;100105.53;5052405;28;20053;-59
2021/04/22 05:47:50;;;;;;;0.45;0.20;;;;;;;23.74;nan;100105.53;5052567;28;20033;-60
2021/04/22 05:50:17;;;;;;;0.98;0.17;;;;;;;23.68;nan;100102.63;5052440;28;20056;-60
2021/04/22 05:52:42;;;;;;;0.25;0.10;;;;;;;23.77;nan;100102.34;5052515;28;20028;-59
2021/04/22 05:55:09;;;;;;;0.85;0.15;;;;;;;23.78;nan;100106.75;5052150;28;20021;-59
2021/04/22 05:57:34;;;;;;;0.38;0.17;;;;;;;23.67;nan;100111.91;5052324;28;20108;-60
2021/04/22 06:00:00;;;;;;;0.28;0.10;;;;;;;23.74;nan;100117.34;5052447;28;20103;-59
2021/04/22 06:02:25;;;;;;;0.65;0.10;;;;;;;23.68;nan;100129.22;5052139;28;20017;-61
2021/04/22 06:04:51;;;;;;;0.28;0.10;;;;;;;23.74;nan;100111.03;5052426;28;20437;-60
2021/04/22 06:07:16;;;;;;;0.17;0.08;;;;;;;23.78;nan;100135.03;5051629;28;20171;-59
2021/04/22 06:09:41;;;;;;;0.38;0.20;;;;;;;23.74;nan;100132.97;5052304;28;20029;-61
2021/04/22 06:12:08;;;;;;;0.93;0.20;;;;;;;23.68;nan;100135.56;5052198;28;20025;-60
2021/04/22 06:14:33;;;;;;;0.90;0.20;;;;;;;23.76;nan;100141.81;5052178;28;20032;-60
2021/04/22 06:16:58;;;;;;;0.45;0.30;;;;;;;23.76;nan;100139.09;5052148;28;20124;-60
2021/04/22 06:19:24;;;;;;;0.10;0.10;;;;;;;23.72;nan;100140.59;5052007;28;20024;-60
2021/04/22 06:21:49;;;;;;;0.30;0.17;;;;;;;23.75;nan;100151.13;5052256;28;20060;-60
2021/04/22 06:24:15;;;;;;;0.30;0.17;;;;;;;23.74;nan;100154.94;5052001;28;20527;-60
2021/04/22 06:26:40;;;;;;;1.55;0.28;;;;;;;23.83;nan;100159.06;5052093;28;20025;-60
2021/04/22 06:29:05;;;;;;;0.73;0.20;;;;;;;23.88;nan;100156.50;5051966;28;20376;-60
2021/04/22 06:31:31;;;;;;;0.43;0.20;;;;;;;23.80;nan;100149.38;5052544;28;20099;-60
2021/04/22 06:33:57;;;;;;;0.80;0.10;;;;;;;23.85;nan;100167.91;5052102;28;20024;-60
2021/04/22 06:36:22;;;;;;;0.50;0.10;;;;;;;23.86;nan;100164.13;5051825;28;20024;-60
2021/04/22 06:38:48;;;;;;;0.60;0.20;;;;;;;23.85;nan;100167.91;5052101;28;20108;-60
2021/04/22 06:41:13;;;;;;;0.80;0.20;;;;;;;23.88;nan;100170.25;5051837;28;20025;-60
2021/04/22 06:43:39;;;;;;;0.32;0.10;;;;;;;23.73;nan;100166.97;5052051;28;20028;-61
2021/04/22 06:46:04;;;;;;;0.38;0.10;;;;;;;23.85;nan;100178.91;5052004;28;20025;-60
2021/04/22 06:48:29;;;;;;;2.17;0.20;;;;;;;23.75;nan;100178.56;5051795;28;20021;-60
2021/04/22 06:50:55;;;;;;;0.35;0.10;;;;;;;23.81;nan;100177.66;5051970;28;20091;-60
2021/04/22 06:53:20;;;;;;;0.35;0.10;;;;;;;23.79;nan;100171.56;5051749;28;20419;-60
2021/04/22 06:55:45;;;;;;;0.20;0.13;;;;;;;23.83;nan;100183.78;5051764;28;20124;-60
2021/04/22 06:58:11;;;;;;;0.65;0.32;;;;;;;23.78;nan;100167.13;5051770;28;20464;-61
2021/04/22 07:00:38;;;;;;;0.82;0.20;;;;;;;23.82;nan;100176.59;5051786;28;20096;-60
2021/04/22 07:03:05;;;;;;;2.08;0.20;;;;;;;23.81;nan;100184.00;5051569;28;20083;-59
2021/04/22 07:05:30;;;;;;;0.13;0.10;;;;;;;23.83;nan;100176.38;5051699;28;20036;-61
2021/04/22 07:07:56;;;;;;;0.32;0.10;;;;;;;23.90;nan;100181.84;5052102;28;20025;-60
2021/04/22 07:10:22;;;;;;;0.82;0.20;;;;;;;23.88;nan;100183.97;5051623;28;20036;-60
2021/04/22 07:12:47;;;;;;;1.10;0.30;;;;;;;23.76;nan;100192.06;5051825;28;20067;-61
2021/04/22 07:15:13;;;;;;;0.95;0.17;;;;;;;23.87;nan;100187.78;5051546;28;20024;-60
2021/04/22 07:17:40;;;;;;;0.38;0.20;;;;;;;23.88;nan;100197.69;5051635;28;20032;-60
2021/04/22 07:20:12;;;;;;;0.50;0.10;;;;;;;23.86;nan;100192.41;5054877;28;20502;-61
2021/04/22 07:22:37;;;;;;;0.85;0.22;;;;;;;23.82;nan;100195.81;5055304;28;20498;-61
2021/04/22 07:25:03;;;;;;;0.95;0.20;;;;;;;23.86;nan;100203.41;5054090;28;20056;-60
2021/04/22 07:27:28;;;;;;;0.73;0.20;;;;;;;23.87;nan;100204.25;5054520;28;20025;-61
2021/04/22 07:29:54;;;;;;;0.22;0.00;;;;;;;23.91;nan;100210.97;5055274;28;20070;-61
2021/04/22 07:32:20;;;;;;;0.88;0.20;;;;;;;23.87;nan;100220.72;5054947;28;20053;-60
2021/04/22 07:34:47;;;;;;;0.38;0.10;;;;;;;23.79;nan;100213.56;5055184;28;20510;-61
2021/04/22 07:37:14;;;;;;;0.43;0.20;;;;;;;23.86;nan;100208.91;5054527;28;20017;-60
2021/04/22 07:39:40;;;;;;;0.40;0.10;;;;;;;23.89;nan;100213.94;5055021;28;20380;-60
2021/04/22 07:42:05;;;;;;;0.45;0.13;;;;;;;23.91;nan;100216.44;5054723;28;20024;-61
2021/04/22 07:44:31;;;;;;;0.85;0.13;;;;;;;23.84;nan;100223.88;5054785;28;20032;-61
2021/04/22 07:46:56;;;;;;;0.30;0.10;;;;;;;23.87;nan;100226.19;5054744;28;20071;-61
2021/04/22 07:49:21;;;;;;;0.82;0.30;;;;;;;23.88;nan;100225.13;5054622;28;20494;-62
2021/04/22 07:51:46;;;;;;;1.17;0.55;;;;;;;23.87;nan;100226.19;5054812;28;20029;-61
2021/04/22 07:54:12;;;;;;;0.65;0.20;;;;;;;23.90;nan;100228.50;5054572;28;20029;-61
2021/04/22 07:56:37;;;;;;;0.32;0.10;;;;;;;23.82;nan;100231.50;5054461;28;20125;-61
2021/04/22 07:59:03;;;;;;;1.73;0.32;;;;;;;23.80;nan;100239.13;5054540;28;20049;-61
2021/04/22 08:01:29;;;;;;;0.70;0.10;;;;;;;23.93;nan;100241.78;5054343;28;20098;-61
2021/04/22 08:03:54;;;;;;;1.02;0.20;;;;;;;23.86;nan;100235.50;5054579;28;20546;-61
2021/04/22 08:06:20;;;;;;;0.55;0.20;;;;;;;23.79;nan;100245.66;5054073;28;20415;-60
2021/04/22 08:08:45;;;;;;;1.25;0.10;;;;;;;23.82;nan;100245.22;5054424;28;20021;-60
2021/04/22 08:11:11;;;;;;;0.57;0.10;;;;;;;23.99;nan;100246.34;5054235;28;20024;-61
2021/04/22 08:13:37;;;;;;;0.80;0.10;;;;;;;23.87;nan;100243.50;5054075;28;20029;-60
2021/04/22 08:16:03;;;;;;;0.52;0.20;;;;;;;23.82;nan;100250.72;5054347;28;20352;-62
2021/04/22 08:18:28;;;;;;;0.85;0.15;;;;;;;23.95;nan;100250.63;5054049;28;20029;-60
2021/04/22 08:20:57;;;;;;;1.58;0.20;;;;;;;23.97;nan;100253.97;5054181;28;20016;-61
2021/04/22 08:23:25;;;;;;;0.20;0.10;;;;;;;23.95;nan;100261.59;5054007;28;20029;-61
2021/04/22 08:25:54;;;;;;;0.35;0.10;;;;;;;23.84;nan;100267.78;5054048;28;20055;-60
2021/04/22 08:28:22;;;;;;;1.38;0.20;;;;;;;23.97;nan;100267.72;5053760;28;20491;-61
2021/04/22 08:31:04;;;;;;;0.15;0.10;;;;;;;23.80;nan;100270.16;5053674;28;20096;-60
2021/04/22 08:33:32;;;;;;;1.27;0.20;;;;;;;23.90;nan;100277.91;5053907;28;20025;-61
2021/04/22 08:35:58;;;;;;;0.30;0.08;;;;;;;23.84;nan;100265.06;5053825;28;20072;-60
2021/04/22 08:38:24;;;;;;;0.20;0.10;;;;;;;23.93;nan;100277.47;5053680;28;20116;-61
2021/04/22 08:40:51;;;;;;;1.02;0.10;;;;;;;23.92;nan;100284.84;5053959;28;20086;-61
2021/04/22 08:43:16;;;;;;;0.32;0.05;;;;;;;23.94;nan;100287.38;5053615;28;20043;-60
2021/04/22 08:45:42;;;;;;;0.85;0.30;;;;;;;23.88;nan;100293.75;5053734;28;20029;-62
2021/04/22 08:48:08;;;;;;;0.13;0.10;;;;;;;23.94;nan;100292.88;5053360;28;20021;-60
2021/04/22 08:50:35;;;;;;;0.52;0.10;;;;;;;23.87;nan;100286.59;5053595;28;20056;-61
2021/04/22 08:53:04;;;;;;;1.25;0.30;;;;;;;23.91;nan;100293.31;5053545;28;20104;-60
2021/04/22 08:55:32;;;;;;;0.40;0.20;;;;;;;23.95;nan;100300.88;5053256;28;20052;-60
2021/04/22 08:58:00;;;;;;;1.15;0.30;;;;;;;23.93;nan;100302.16;5053443;28;20108;-61
2021/04/22 09:00:29;;;;;;;0.32;0.10;;;;;;;23.96;nan;100301.72;5053439;28;20427;-61
2021/04/22 09:02:54;;;;;;;0.52;0.10;;;;;;;23.90;nan;100297.13;5053274;28;20024;-60
2021/04/22 09:05:20;;;;;;;0.63;0.13;;;;;;;23.89;nan;100311.91;5053116;28;20059;-59
2021/04/22 09:07:46;;;;;;;0.30;0.20;;;;;;;23.90;nan;100302.63;5053144;28;20087;-61
2021/04/22 09:10:16;;;;;;;0.82;0.35;;;;;;;23.94;nan;100320.31;5053067;28;20033;-60
2021/04/22 09:12:41;;;;;;;0.85;0.30;;;;;;;23.93;nan;100335.09;5053012;28;20082;-61
2021/04/22 09:15:11;;;;;;;0.65;0.20;;;;;;;23.85;nan;100321.63;5052916;28;20464;-60
2021/04/22 09:17:38;;;;;;;1.27;0.10;;;;;;;23.77;nan;100321.91;5052955;28;20025;-61
2021/04/22 09:20:06;;;;;;;0.52;0.20;;;;;;;23.88;nan;100332.19;5051770;28;20027;-61
2021/04/22 09:22:33;;;;;;;0.30;0.30;;;;;;;23.91;nan;100334.50;5051668;28;20017;-61
2021/04/22 09:25:09;;;;;;;1.05;0.10;;;;;;;23.95;nan;100333.81;5052932;28;20024;-61
2021/04/22 09:27:34;;;;;;;0.22;0.10;;;;;;;23.79;nan;100331.59;5052797;28;20527;-60
2021/04/22 09:29:59;;;;;;;1.05;0.20;;;;;;;23.96;nan;100334.66;5052963;28;20052;-61
2021/04/22 09:32:27;;;;;;;0.28;0.10;;;;;;;23.90;nan;100330.06;5052618;28;20031;-61
2021/04/22 09:35:04;;;;;;;0.90;0.10;;;;;;;23.93;nan;100351.56;5052840;28;20472;-61
2021/04/22 09:37:39;;;;;;;0.30;0.10;;;;;;;23.96;nan;100342.91;5052592;28;20108;-61
2021/04/22 09:40:35;;;;;;;0.40;0.10;;;;;;;24.05;nan;100354.47;5052709;28;20031;-60
2021/04/22 09:43:04;;;;;;;0.45;0.10;;;;;;;23.98;nan;100351.75;5052087;28;20060;-60
2021/04/22 09:45:31;;;;;;;0.20;0.10;;;;;;;23.97;nan;100348.16;5052758;28;20029;-61
2021/04/22 09:47:57;;;;;;;0.60;0.20;;;;;;;23.83;nan;100345.72;5052583;28;20399;-62
2021/04/22 09:50:26;;;;;;;0.30;0.08;;;;;;;23.96;nan;100362.13;5052376;28;20031;-60
2021/04/22 09:52:55;;;;;;;0.30;0.17;;;;;;;23.88;nan;100365.13;5052653;28;20025;-61
2021/04/22 09:55:24;;;;;;;0.93;0.20;;;;;;;24.02;nan;100361.25;5052084;28;20037;-61
2021/04/22 09:57:49;;;;;;;0.35;0.08;;;;;;;23.98;nan;100370.97;5052590;28;20013;-61
2021/04/22 10:00:28;;;;;;;0.93;0.32;;;;;;;23.98;nan;100376.47;5052207;28;20036;-61
2021/04/22 10:02:57;;;;;;;0.40;0.20;;;;;;;23.97;nan;100405.81;5052774;28;20017;-61
2021/04/22 10:05:25;;;;;;;0.35;0.20;;;;;;;24.04;nan;100385.75;5052170;28;20028;-61
2021/04/22 10:08:01;;;;;;;0.80;0.10;;;;;;;23.97;nan;100413.22;5052508;28;20025;-60
2021/04/22 10:10:27;;;;;;;1.45;0.50;;;;;;;23.98;nan;100403.91;5052314;28;20025;-61
2021/04/22 10:13:00;;;;;;;0.35;0.13;;;;;;;23.99;nan;100391.88;5052284;28;20496;-61
2021/04/22 10:15:25;;;;;;;0.40;0.10;;;;;;;24.01;nan;100381.50;5052206;28;20047;-61
2021/04/22 10:17:55;;;;;;;0.73;0.20;;;;;;;23.99;nan;100402.84;5052320;28;20017;-61
2021/04/22 10:20:23;;;;;;;0.10;0.08;;;;;;;24.03;nan;100404.13;5052044;28;20127;-60
2021/04/22 10:22:50;;;;;;;1.10;0.20;;;;;;;24.03;nan;100406.88;5052285;28;20487;-61
2021/04/22 10:25:18;;;;;;;0.73;0.10;;;;;;;24.04;nan;100414.03;5051965;28;20188;-61
2021/04/22 10:27:44;;;;;;;0.65;0.10;;;;;;;24.02;nan;100432.66;5052044;28;20056;-61
2021/04/22 10:30:15;;;;;;;1.30;0.20;;;;;;;23.92;nan;100424.03;5052151;28;20090;-61
2021/04/22 10:32:42;;;;;;;1.48;0.47;;;;;;;23.95;nan;100440.06;5052184;28;20071;-61
2021/04/22 10:35:11;;;;;;;0.43;0.10;;;;;;;23.93;nan;100433.94;5052052;28;20103;-61
2021/04/22 10:37:38;;;;;;;0.13;0.10;;;;;;;23.90;nan;100446.19;5052029;28;20025;-61
2021/04/22 10:40:04;;;;;;;0.28;0.13;;;;;;;23.86;nan;100444.13;5052444;28;20029;-60
2021/04/22 10:42:30;;;;;;;0.40;0.10;;;;;;;23.95;nan;100446.38;5051947;28;20484;-62
2021/04/22 10:44:55;;;;;;;1.60;0.10;;;;;;;23.97;nan;100462.63;5052007;28;20021;-61
2021/04/22 10:47:24;;;;;;;0.30;0.10;;;;;;;23.98;nan;100465.16;5051703;28;20454;-61
2021/04/22 10:49:51;;;;;;;0.95;0.10;;;;;;;24.00;nan;100471.28;5052573;28;20036;-60
2021/04/22 10:52:18;;;;;;;0.52;0.10;;;;;;;23.98;nan;100472.56;5052322;28;20017;-62
2021/04/22 10:54:46;;;;;;;0.40;0.20;;;;;;;23.95;nan;100475.75;5055792;28;20060;-60
2021/04/22 10:57:15;;;;;;;0.40;0.17;;;;;;;23.99;nan;100490.72;5055517;28;20388;-61
2021/04/22 10:59:44;;;;;;;0.75;0.20;;;;;;;24.01;nan;100491.34;5055715;28;20531;-62
2021/04/22 11:02:18;;;;;;;0.50;0.20;;;;;;;23.96;nan;100493.91;5055693;28;20028;-60
2021/04/22 11:04:49;;;;;;;0.93;0.30;;;;;;;23.93;nan;100494.34;5055686;28;20559;-62
2021/04/22 11:07:23;;;;;;;0.75;0.10;;;;;;;24.02;nan;100498.53;5055254;28;20032;-60
2021/04/22 11:09:54;;;;;;;2.00;0.40;;;;;;;23.84;nan;100507.44;5055632;28;20032;-61
2021/04/22 11:12:25;;;;;;;0.25;0.13;;;;;;;23.97;nan;100501.06;5055583;28;20028;-60
2021/04/22 11:14:52;;;;;;;1.42;0.45;;;;;;;23.95;nan;100514.19;5055862;28;20070;-61
2021/04/22 11:17:18;;;;;;;0.82;0.10;;;;;;;23.96;nan;100515.84;5055281;28;20031;-61
2021/04/22 11:19:46;;;;;;;1.38;0.20;;;;;;;23.96;nan;100521.34;5055781;28;20047;-61
2021/04/22 11:22:19;;;;;;;0.50;0.17;;;;;;;24.00;nan;100534.41;5055213;28;20049;-62
2021/04/22 11:25:01;;;;;;;0.10;0.10;;;;;;;24.00;nan;100522.59;5055335;28;20431;-60
2021/04/22 11:27:30;;;;;;;0.80;0.20;;;;;;;24.01;nan;100524.28;5053397;28;20057;-61
2021/04/22 11:29:57;;;;;;;0.20;0.03;;;;;;;23.99;nan;100529.16;5055292;28;20025;-61
2021/04/22 11:32:30;;;;;;;0.85;0.20;;;;;;;24.01;nan;100535.25;5054898;28;20082;-62
2021/04/22 11:35:16;;;;;;;0.03;0.03;;;;;;;23.96;nan;100540.56;5055109;28;20028;-61
2021/04/22 11:38:00;;;;;;;1.48;0.30;;;;;;;24.02;nan;100547.97;5053667;28;20484;-61
2021/04/22 11:40:40;;;;;;;0.73;0.10;;;;;;;23.92;nan;100553.91;5054857;28;20548;-62